createdAt,value
2018-10-12T00:00:38.579Z,10.27
2018-10-12T00:05:43.703Z,12.43
2018-10-12T00:10:47.938Z,12.30
2018-10-12T00:15:52.190Z,11.20
2018-10-12T00:20:57.584Z,14.37
2018-10-12T00:26:02.035Z,11.48
2018-10-12T00:31:06.181Z,13.95
2018-10-12T00:36:10.880Z,12.47
2018-10-12T00:41:16.223Z,9.63
2018-10-12T00:46:20.494Z,16.60
2018-10-12T00:51:25.178Z,11.90
2018-10-12T00:56:29.594Z,10.93
2018-10-12T01:01:33.755Z,12.13
2018-10-12T01:06:38.632Z,12.10
2018-10-12T01:11:42.913Z,12.63
2018-10-12T01:16:47.176Z,11.13
2018-10-12T01:21:51.583Z,12.40
2018-10-12T01:26:56.289Z,8.93
2018-10-12T01:32:02.180Z,10.03
2018-10-12T01:37:06.295Z,10.23
2018-10-12T01:42:11.273Z,10.83
2018-10-12T01:47:15.918Z,10.23
2018-10-12T01:52:20.632Z,11.30
2018-10-12T01:57:25.939Z,11.40
2018-10-12T02:02:30.390Z,10.20
2018-10-12T02:07:34.503Z,14.20
2018-10-12T02:12:38.706Z,10.23
2018-10-12T02:17:42.799Z,12.55
2018-10-12T02:22:47.974Z,10.97
2018-10-12T02:27:52.908Z,13.80
2018-10-12T02:32:56.980Z,13.17
2018-10-12T02:38:01.171Z,13.18
2018-10-12T02:43:05.928Z,17.93
2018-10-12T02:48:10.302Z,10.83
2018-10-12T02:53:15.474Z,13.73
2018-10-12T02:58:19.867Z,12.40
2018-10-12T03:03:25.204Z,17.67
2018-10-12T03:08:29.721Z,13.73
2018-10-12T03:13:33.952Z,13.37
2018-10-12T03:18:38.204Z,13.90
2018-10-12T03:23:42.424Z,13.37
2018-10-12T03:28:47.622Z,12.93
2018-10-12T03:33:52.015Z,14.33
2018-10-12T03:38:56.726Z,13.20
2018-10-12T03:44:01.526Z,14.30
2018-10-12T03:49:06.316Z,12.87
2018-10-12T03:54:10.606Z,11.37
2018-10-12T03:59:15.073Z,11.27
2018-10-12T04:04:20.160Z,12.30
2018-10-12T04:09:25.057Z,8.80
2018-10-12T04:14:29.326Z,10.50
2018-10-12T04:19:33.437Z,10.63
2018-10-12T04:24:37.630Z,11.50
2018-10-12T04:29:42.780Z,13.40
2018-10-12T04:34:48.228Z,11.67
2018-10-12T04:39:59.817Z,13.63
2018-10-12T04:45:04.815Z,12.67
2018-10-12T04:50:09.065Z,12.50
2018-10-12T04:55:13.489Z,13.07
2018-10-12T05:00:17.659Z,11.33
2018-10-12T05:05:22.357Z,9.70
2018-10-12T05:10:28.501Z,11.07
2018-10-12T05:15:32.731Z,11.83
2018-10-12T05:20:37.218Z,17.87
2018-10-12T05:25:42.232Z,10.80
2018-10-12T05:30:47.092Z,12.80
2018-10-12T05:35:51.706Z,15.53
2018-10-12T05:40:56.965Z,10.67
2018-10-12T05:46:01.377Z,12.53
2018-10-12T05:51:06.148Z,10.90
2018-10-12T05:56:11.702Z,15.77
2018-10-12T06:01:16.349Z,12.67
2018-10-12T06:06:21.586Z,12.10
2018-10-12T06:11:26.011Z,10.77
2018-10-12T06:22:14.081Z,13.08
2018-10-12T06:27:19.185Z,10.83
2018-10-12T06:32:23.300Z,7.60
2018-10-12T06:37:28.681Z,7.23
2018-10-12T06:42:33.128Z,8.33
2018-10-12T06:47:37.644Z,6.50
2018-10-12T06:52:42.067Z,7.25
2018-10-12T06:57:46.208Z,7.17
2018-10-12T07:02:51.040Z,5.47
2018-10-12T07:07:55.544Z,4.80
2018-10-12T07:13:00.306Z,5.62
2018-10-12T07:18:04.416Z,7.33
2018-10-12T07:23:08.927Z,10.70
2018-10-12T07:28:13.799Z,8.40
2018-10-12T07:33:17.945Z,6.22
2018-10-12T07:38:22.070Z,8.45
2018-10-12T07:43:26.362Z,7.05
2018-10-12T07:48:30.692Z,8.15
2018-10-12T07:53:35.148Z,6.92
2018-10-12T07:58:39.578Z,8.08
2018-10-12T08:03:43.924Z,6.33
2018-10-12T08:08:48.042Z,9.60
2018-10-12T08:13:53.091Z,7.92
2018-10-12T08:18:57.740Z,10.65
2018-10-12T08:24:02.222Z,8.95
2018-10-12T08:29:06.300Z,5.60
2018-10-12T08:34:10.681Z,9.43
2018-10-12T08:39:15.055Z,8.13
2018-10-12T08:44:19.523Z,6.58
2018-10-12T08:49:23.704Z,5.55
2018-10-12T08:54:28.296Z,7.40
2018-10-12T08:59:32.898Z,4.75
2018-10-12T09:04:37.198Z,9.60
2018-10-12T09:09:41.505Z,12.73
2018-10-12T09:14:45.652Z,7.97
2018-10-12T09:19:50.332Z,6.95
2018-10-12T09:24:54.530Z,5.78
2018-10-12T09:29:59.073Z,9.98
2018-10-12T09:35:03.596Z,12.25
2018-10-12T09:40:07.347Z,13.35
2018-10-12T09:45:11.434Z,4.93
2018-10-12T09:50:16.138Z,7.78
2018-10-12T09:55:20.403Z,7.28
2018-10-12T10:00:29.924Z,6.85
2018-10-12T10:05:34.068Z,5.17
2018-10-12T10:10:38.303Z,4.53
2018-10-12T10:15:42.673Z,6.37
2018-10-12T10:20:46.972Z,7.35
2018-10-12T10:25:52.148Z,8.60
2018-10-12T10:30:56.309Z,3.90
2018-10-12T10:36:00.682Z,2.33
2018-10-12T10:41:05.312Z,6.13
2018-10-12T10:46:10.146Z,6.12
2018-10-12T10:51:14.705Z,4.72
2018-10-12T10:56:18.945Z,9.83
2018-10-12T11:01:23.581Z,11.25
2018-10-12T11:06:28.158Z,5.58
2018-10-12T11:11:32.563Z,3.08
2018-10-12T11:16:36.727Z,2.00
2018-10-12T11:21:40.806Z,2.63
2018-10-12T11:26:45.502Z,2.60
2018-10-12T11:31:50.100Z,3.17
2018-10-12T11:36:54.484Z,2.17
2018-10-12T11:41:59.270Z,4.20
2018-10-12T11:47:04.293Z,5.22
2018-10-12T11:52:09.103Z,3.45
2018-10-12T11:57:13.312Z,4.20
2018-10-12T12:02:17.569Z,4.90
2018-10-12T12:07:21.880Z,5.40
2018-10-12T12:12:26.902Z,4.60
2018-10-12T12:17:31.597Z,12.33
2018-10-12T12:22:35.744Z,4.17
2018-10-12T12:27:40.059Z,6.67
2018-10-12T12:32:44.221Z,4.15
2018-10-12T12:37:48.876Z,5.03
2018-10-12T12:42:54.046Z,2.10
2018-10-12T12:47:58.357Z,3.15
2018-10-12T12:53:02.470Z,3.47
2018-10-12T12:58:06.764Z,10.95
2018-10-12T13:03:12.642Z,3.33
2018-10-12T13:08:17.207Z,3.80
2018-10-12T13:13:21.980Z,2.67
2018-10-12T13:18:26.097Z,2.60
2018-10-12T13:23:30.862Z,4.25
2018-10-12T13:28:36.331Z,6.67
2018-10-12T13:33:40.466Z,4.78
2018-10-12T13:38:44.934Z,3.25
2018-10-12T13:43:50.583Z,5.00
2018-10-12T13:48:55.166Z,4.65
2018-10-12T13:53:59.338Z,6.78
2018-10-12T13:59:03.828Z,2.58
2018-10-12T14:04:08.238Z,4.75
2018-10-12T14:09:12.781Z,7.20
2018-10-12T14:14:17.437Z,4.23
2018-10-12T14:19:21.899Z,11.47
2018-10-12T14:24:25.918Z,3.80
2018-10-12T14:29:30.285Z,5.12
2018-10-12T14:34:34.728Z,9.80
2018-10-12T14:39:38.979Z,4.22
2018-10-12T14:44:43.306Z,10.63
2018-10-12T14:49:47.484Z,12.53
2018-10-12T14:54:51.915Z,1.72
2018-10-12T14:59:56.171Z,6.60
2018-10-12T15:05:01.227Z,5.03
2018-10-12T15:10:05.518Z,13.48
2018-10-12T15:15:16.930Z,20.08
2018-10-12T15:20:24.298Z,3.90
2018-10-12T15:25:28.601Z,6.85
2018-10-12T15:30:33.315Z,4.37
2018-10-12T15:35:37.831Z,5.10
2018-10-12T15:40:42.156Z,18.67
2018-10-12T15:45:49.306Z,6.95
2018-10-12T15:50:54.438Z,4.42
2018-10-12T15:55:58.784Z,12.93
2018-10-12T16:01:02.945Z,7.12
2018-10-12T16:06:08.366Z,4.50
2018-10-12T16:11:12.918Z,9.80
2018-10-12T16:16:17.317Z,5.87
2018-10-12T16:21:21.431Z,5.50
2018-10-12T16:26:25.566Z,5.35
2018-10-12T16:31:30.058Z,4.85
2018-10-12T16:36:36.363Z,4.67
2018-10-12T16:42:20.626Z,7.30
2018-10-12T16:47:25.639Z,9.97
2018-10-12T16:52:30.333Z,8.43
2018-10-12T16:57:36.218Z,8.45
2018-10-12T17:02:40.783Z,6.37
2018-10-12T17:07:45.230Z,5.25
2018-10-12T17:12:50.372Z,6.97
2018-10-12T17:17:55.666Z,5.07
2018-10-12T17:23:00.188Z,4.77
2018-10-12T17:28:04.633Z,4.67
2018-10-12T17:33:11.294Z,4.43
2018-10-12T17:38:17.319Z,7.57
2018-10-12T17:43:22.652Z,8.30
2018-10-12T17:48:26.987Z,3.73
2018-10-12T17:53:31.844Z,8.50
2018-10-12T17:58:36.280Z,5.20
2018-10-12T18:03:41.229Z,4.73
2018-10-12T18:08:45.964Z,4.47
2018-10-12T18:13:50.727Z,8.57
2018-10-12T18:18:55.164Z,3.87
2018-10-12T18:23:59.912Z,11.30
2018-10-12T18:29:04.839Z,5.73
2018-10-12T18:34:09.518Z,6.30
2018-10-12T18:39:13.988Z,2.47
2018-10-12T18:44:18.883Z,2.87
2018-10-12T18:49:23.587Z,2.33
2018-10-12T18:54:28.044Z,3.03
2018-10-12T18:59:33.522Z,3.10
2018-10-12T19:04:38.145Z,6.67
2018-10-12T19:09:42.232Z,3.93
2018-10-12T19:14:46.784Z,6.42
2018-10-12T19:19:51.340Z,5.93
2018-10-12T19:24:55.999Z,11.88
2018-10-12T19:30:00.293Z,6.30
2018-10-12T19:35:04.567Z,4.13
2018-10-12T19:40:09.821Z,3.57
2018-10-12T19:45:14.466Z,5.73
2018-10-12T19:50:19.344Z,4.90
2018-10-12T19:55:23.723Z,3.53
2018-10-12T20:00:27.930Z,4.80
2018-10-12T20:05:32.078Z,10.37
2018-10-12T20:10:36.970Z,3.60
2018-10-12T20:15:41.261Z,3.33
2018-10-12T20:20:45.511Z,4.00
2018-10-12T20:25:50.457Z,2.90
2018-10-12T20:30:54.982Z,2.73
2018-10-12T20:35:59.567Z,4.00
2018-10-12T20:41:03.769Z,5.33
2018-10-12T20:46:07.991Z,3.23
2018-10-12T20:51:12.937Z,6.40
2018-10-12T20:56:17.802Z,4.12
2018-10-12T21:01:22.502Z,5.27
2018-10-12T21:06:26.825Z,6.57
2018-10-12T21:11:31.576Z,9.17
2018-10-12T21:16:35.901Z,8.27
2018-10-12T21:21:40.395Z,5.63
2018-10-12T21:26:45.194Z,5.45
2018-10-12T21:31:50.728Z,5.30
2018-10-12T21:36:56.330Z,4.97
2018-10-12T21:42:00.511Z,8.47
2018-10-12T21:47:04.634Z,3.70
2018-10-12T21:52:09.720Z,7.13
2018-10-12T21:57:14.736Z,6.37
2018-10-12T22:02:19.282Z,5.87
2018-10-12T22:07:23.860Z,6.95
2018-10-12T22:12:28.552Z,7.13
2018-10-12T22:17:32.842Z,8.37
2018-10-12T22:22:37.842Z,6.67
2018-10-12T22:27:42.247Z,6.77
2018-10-12T22:32:47.915Z,8.93
2018-10-12T22:37:53.135Z,5.78
2018-10-12T22:42:57.475Z,7.67
2018-10-12T22:48:01.974Z,4.70
2018-10-12T22:53:06.777Z,7.23
2018-10-12T22:58:13.135Z,6.04
2018-10-12T23:03:18.460Z,6.13
2018-10-12T23:08:23.308Z,5.30
2018-10-12T23:13:27.596Z,5.00
2018-10-12T23:18:32.527Z,5.90
2018-10-12T23:23:37.017Z,6.30
2018-10-12T23:28:42.183Z,5.25
2018-10-12T23:33:57.498Z,7.00
2018-10-12T23:39:02.798Z,7.07
2018-10-12T23:44:07.465Z,4.63
2018-10-12T23:49:12.803Z,5.43
2018-10-12T23:54:17.644Z,9.87
2018-10-12T23:59:22.909Z,9.28
